createdAt,value
2018-11-05T00:00:19.474Z,64.37
2018-11-05T00:02:49.762Z,59.37
2018-11-05T00:05:18.305Z,68.83
2018-11-05T00:07:46.769Z,63.60
2018-11-05T00:10:15.218Z,65.97
2018-11-05T00:12:43.795Z,58.10
2018-11-05T00:15:12.234Z,66.40
2018-11-05T00:17:40.690Z,56.77
2018-11-05T00:20:10.106Z,64.93
2018-11-05T00:22:38.541Z,66.53
2018-11-05T00:25:08.390Z,61.63
2018-11-05T00:27:36.850Z,60.43
2018-11-05T00:30:05.757Z,61.03
2018-11-05T00:32:34.201Z,57.10
2018-11-05T00:35:02.743Z,60.47
2018-11-05T00:37:31.192Z,52.93
2018-11-05T00:39:59.598Z,52.83
2018-11-05T00:42:28.069Z,59.57
2018-11-05T00:44:56.489Z,55.50
2018-11-05T00:47:24.905Z,58.47
2018-11-05T00:49:53.337Z,56.77
2018-11-05T00:52:21.762Z,53.27
2018-11-05T00:54:50.235Z,57.60
2018-11-05T00:57:18.672Z,62.40
2018-11-05T00:59:47.126Z,50.73
2018-11-05T01:02:16.051Z,55.10
2018-11-05T01:04:44.500Z,55.30
2018-11-05T01:07:12.934Z,51.73
2018-11-05T01:09:41.385Z,58.63
2018-11-05T01:12:09.826Z,55.17
2018-11-05T01:14:38.301Z,54.13
2018-11-05T01:17:06.742Z,51.00
2018-11-05T01:19:35.173Z,65.10
2018-11-05T01:22:03.630Z,59.67
2018-11-05T01:24:32.043Z,58.57
2018-11-05T01:27:00.498Z,64.50
2018-11-05T01:29:28.958Z,67.73
2018-11-05T01:31:57.410Z,66.20
2018-11-05T01:34:25.861Z,62.30
2018-11-05T01:36:54.340Z,63.90
2018-11-05T01:39:22.784Z,63.63
2018-11-05T01:41:51.258Z,72.10
2018-11-05T01:44:19.712Z,69.97
2018-11-05T01:46:48.174Z,63.30
2018-11-05T01:49:16.702Z,67.23
2018-11-05T01:51:45.115Z,58.03
2018-11-05T01:54:13.579Z,58.33
2018-11-05T01:56:42.025Z,50.27
2018-11-05T01:59:10.635Z,57.47
2018-11-05T02:01:39.093Z,58.47
2018-11-05T02:04:07.590Z,51.53
2018-11-05T02:06:36.023Z,53.47
2018-11-05T02:09:06.478Z,58.40
2018-11-05T02:11:34.910Z,55.40
2018-11-05T02:14:03.398Z,55.67
2018-11-05T02:16:31.837Z,57.57
2018-11-05T02:19:00.293Z,50.07
2018-11-05T02:21:28.727Z,52.20
2018-11-05T02:23:57.155Z,50.57
2018-11-05T02:26:25.629Z,53.77
2018-11-05T02:28:54.041Z,52.13
2018-11-05T02:31:22.493Z,50.33
2018-11-05T02:33:50.923Z,49.10
2018-11-05T02:36:19.510Z,50.00
2018-11-05T02:38:47.920Z,51.50
2018-11-05T02:41:16.379Z,48.00
2018-11-05T02:43:44.802Z,48.40
2018-11-05T02:46:13.210Z,49.80
2018-11-05T02:48:42.150Z,44.17
2018-11-05T02:51:10.569Z,45.30
2018-11-05T02:53:39.022Z,49.20
2018-11-05T02:56:08.014Z,43.13
2018-11-05T02:58:36.476Z,46.23
2018-11-05T03:01:04.937Z,42.67
2018-11-05T03:03:33.399Z,49.67
2018-11-05T03:06:01.863Z,49.00
2018-11-05T03:08:30.334Z,45.37
2018-11-05T03:10:58.778Z,39.60
2018-11-05T03:13:27.208Z,42.70
2018-11-05T03:15:55.746Z,49.07
2018-11-05T03:18:24.194Z,47.60
2018-11-05T03:20:52.616Z,49.67
2018-11-05T03:23:21.350Z,44.73
2018-11-05T03:25:49.779Z,49.63
2018-11-05T03:28:18.632Z,44.80
2018-11-05T03:30:47.102Z,51.47
2018-11-05T03:33:15.558Z,50.80
2018-11-05T03:35:44.157Z,48.83
2018-11-05T03:38:12.558Z,45.93
2018-11-05T03:40:41.003Z,52.30
2018-11-05T03:43:09.446Z,51.67
2018-11-05T03:45:37.889Z,50.87
2018-11-05T03:48:06.571Z,47.50
2018-11-05T03:50:35.190Z,48.00
2018-11-05T03:53:03.645Z,47.83
2018-11-05T03:55:32.556Z,47.13
2018-11-05T03:58:00.974Z,48.27
2018-11-05T04:00:29.443Z,46.57
2018-11-05T04:02:57.861Z,44.27
2018-11-05T04:05:26.296Z,48.50
2018-11-05T04:07:54.739Z,48.97
2018-11-05T04:10:23.182Z,48.30
2018-11-05T04:12:51.616Z,48.07
2018-11-05T04:15:20.131Z,49.47
2018-11-05T04:17:48.528Z,54.70
2018-11-05T04:20:16.982Z,49.00
2018-11-05T04:22:45.578Z,49.80
2018-11-05T04:25:14.070Z,44.00
2018-11-05T04:27:42.539Z,44.10
2018-11-05T04:30:13.223Z,42.20
2018-11-05T04:32:42.032Z,41.40
2018-11-05T04:35:12.114Z,41.50
2018-11-05T04:37:40.582Z,44.10
2018-11-05T04:40:09.770Z,43.03
2018-11-05T04:42:38.201Z,42.47
2018-11-05T04:45:07.751Z,42.60
2018-11-05T04:47:36.183Z,41.70
2018-11-05T04:50:05.806Z,46.53
2018-11-05T04:52:34.213Z,43.87
2018-11-05T04:55:02.696Z,41.37
2018-11-05T04:57:31.286Z,40.30
2018-11-05T05:00:04.031Z,41.00
2018-11-05T05:02:32.501Z,42.07
2018-11-05T05:05:00.909Z,42.53
2018-11-05T05:07:29.388Z,39.60
2018-11-05T05:09:57.797Z,44.53
2018-11-05T05:12:26.221Z,44.77
2018-11-05T05:14:54.645Z,39.53
2018-11-05T05:17:23.122Z,42.93
2018-11-05T05:19:51.541Z,40.30
2018-11-05T05:22:19.982Z,41.67
2018-11-05T05:24:48.397Z,40.83
2018-11-05T05:27:16.834Z,48.20
2018-11-05T05:29:45.290Z,44.80
2018-11-05T05:32:13.702Z,51.27
2018-11-05T05:34:42.122Z,43.00
2018-11-05T05:37:10.595Z,50.60
2018-11-05T05:39:39.026Z,48.30
2018-11-05T05:42:07.892Z,50.27
2018-11-05T05:44:36.332Z,46.70
2018-11-05T05:47:05.153Z,45.37
2018-11-05T05:49:33.589Z,49.17
2018-11-05T05:52:02.043Z,54.67
2018-11-05T05:54:30.461Z,46.87
2018-11-05T05:56:58.876Z,43.03
2018-11-05T05:59:27.341Z,42.53
2018-11-05T06:01:55.943Z,38.83
2018-11-05T06:04:24.398Z,40.37
2018-11-05T06:09:27.594Z,46.07
2018-11-05T06:11:56.037Z,39.80
2018-11-05T06:14:24.441Z,41.87
2018-11-05T06:16:52.924Z,44.70
2018-11-05T06:19:21.333Z,38.50
2018-11-05T06:21:49.861Z,45.07
2018-11-05T06:24:18.228Z,43.13
2018-11-05T06:26:46.675Z,44.60
2018-11-05T06:29:15.076Z,37.53
2018-11-05T06:31:43.532Z,37.03
2018-11-05T06:34:12.084Z,45.93
2018-11-05T06:36:40.514Z,43.77
2018-11-05T06:39:11.535Z,44.20
2018-11-05T06:41:40.989Z,42.37
2018-11-05T06:44:09.400Z,44.30
2018-11-05T06:46:37.797Z,38.27
2018-11-05T06:49:06.545Z,36.87
2018-11-05T06:51:34.981Z,36.93
2018-11-05T06:54:04.387Z,38.43
2018-11-05T06:56:33.151Z,37.63
2018-11-05T06:59:01.598Z,38.13
2018-11-05T07:01:31.016Z,35.70
2018-11-05T07:03:59.536Z,32.87
2018-11-05T07:06:28.189Z,32.83
2018-11-05T07:08:56.610Z,29.87
2018-11-05T07:11:25.092Z,31.77
2018-11-05T07:13:53.491Z,30.27
2018-11-05T07:16:22.096Z,33.10
2018-11-05T07:18:50.747Z,31.27
2018-11-05T07:21:19.264Z,32.23
2018-11-05T07:23:47.709Z,32.63
2018-11-05T07:26:16.109Z,30.57
2018-11-05T07:28:44.656Z,29.13
2018-11-05T07:31:13.066Z,28.33
2018-11-05T07:33:41.619Z,36.07
2018-11-05T07:36:11.117Z,36.73
2018-11-05T07:38:39.561Z,33.67
2018-11-05T07:41:07.980Z,34.70
2018-11-05T07:43:37.846Z,37.40
2018-11-05T07:46:09.298Z,33.93
2018-11-05T07:48:37.806Z,37.30
2018-11-05T07:51:06.256Z,33.63
2018-11-05T07:53:34.676Z,34.80
2018-11-05T07:56:03.099Z,31.93
2018-11-05T07:58:31.547Z,30.57
2018-11-05T08:01:00.042Z,29.60
2018-11-05T08:03:28.657Z,27.67
2018-11-05T08:05:57.838Z,27.10
2018-11-05T08:08:26.350Z,25.97
2018-11-05T08:10:54.725Z,21.20
2018-11-05T08:13:23.163Z,20.97
2018-11-05T08:15:51.597Z,24.50
2018-11-05T08:18:20.005Z,22.20
2018-11-05T08:20:48.449Z,22.37
2018-11-05T08:23:16.870Z,21.67
2018-11-05T08:25:45.277Z,19.20
2018-11-05T08:28:14.519Z,19.03
2018-11-05T08:30:42.946Z,20.00
2018-11-05T08:33:11.427Z,19.50
2018-11-05T08:35:39.857Z,17.13
2018-11-05T08:38:08.273Z,20.17
2018-11-05T08:40:36.713Z,19.53
2018-11-05T08:43:05.760Z,18.27
2018-11-05T08:45:34.201Z,16.70
2018-11-05T08:48:02.671Z,17.37
2018-11-05T08:50:31.173Z,18.60
2018-11-05T08:52:59.527Z,13.93
2018-11-05T08:55:28.314Z,16.63
2018-11-05T08:57:56.730Z,15.77
2018-11-05T09:00:30.676Z,14.67
2018-11-05T09:02:59.077Z,13.73
2018-11-05T09:05:27.516Z,15.13
2018-11-05T09:07:56.265Z,12.60
2018-11-05T09:10:24.851Z,12.90
2018-11-05T09:12:53.156Z,16.30
2018-11-05T09:15:22.342Z,12.57
2018-11-05T09:17:51.013Z,12.47
2018-11-05T09:20:20.025Z,12.97
2018-11-05T09:22:49.922Z,12.73
2018-11-05T09:25:18.514Z,14.27
2018-11-05T09:27:46.951Z,12.00
2018-11-05T09:30:17.828Z,13.73
2018-11-05T09:32:46.804Z,11.73
2018-11-05T09:35:15.570Z,12.47
2018-11-05T09:37:44.097Z,11.20
2018-11-05T09:40:14.960Z,11.40
2018-11-05T09:42:44.205Z,10.90
2018-11-05T09:45:15.494Z,14.83
2018-11-05T09:47:44.553Z,13.53
2018-11-05T09:50:13.354Z,13.80
2018-11-05T09:52:41.777Z,15.37
2018-11-05T09:55:11.542Z,8.93
2018-11-05T09:57:40.210Z,11.73
2018-11-05T10:00:15.088Z,10.03
2018-11-05T10:02:48.839Z,14.87
2018-11-05T10:05:17.558Z,10.33
2018-11-05T10:07:46.251Z,10.43
2018-11-05T10:10:15.565Z,11.70
2018-11-05T10:12:44.498Z,10.23
2018-11-05T10:15:13.897Z,9.83
2018-11-05T10:17:42.336Z,9.10
2018-11-05T10:20:13.658Z,11.60
2018-11-05T10:22:42.313Z,9.27
2018-11-05T10:25:11.563Z,11.83
2018-11-05T10:27:39.999Z,11.63
2018-11-05T10:30:13.997Z,12.33
2018-11-05T10:32:42.745Z,10.83
2018-11-05T10:35:11.574Z,9.63
2018-11-05T10:37:40.380Z,9.67
2018-11-05T10:40:13.592Z,12.27
2018-11-05T10:42:42.661Z,13.23
2018-11-05T10:45:12.509Z,9.77
2018-11-05T10:47:41.050Z,10.77
2018-11-05T10:50:10.710Z,11.10
2018-11-05T10:52:39.190Z,10.50
2018-11-05T10:55:07.973Z,8.53
2018-11-05T10:57:36.424Z,8.80
2018-11-05T11:00:07.823Z,8.37
2018-11-05T11:02:40.690Z,9.23
2018-11-05T11:05:09.151Z,10.77
2018-11-05T11:07:37.610Z,8.73
2018-11-05T11:10:06.116Z,8.37
2018-11-05T11:12:34.551Z,8.40
2018-11-05T11:15:03.028Z,8.23
2018-11-05T11:17:31.504Z,6.60
2018-11-05T11:19:59.915Z,6.83
2018-11-05T11:22:28.381Z,7.70
2018-11-05T11:24:56.846Z,6.60
2018-11-05T11:27:25.298Z,8.67
2018-11-05T11:29:53.750Z,8.87
2018-11-05T11:32:22.165Z,7.67
2018-11-05T11:34:50.614Z,7.73
2018-11-05T11:37:19.092Z,8.27
2018-11-05T11:39:47.499Z,8.90
2018-11-05T11:42:15.951Z,9.17
2018-11-05T11:44:44.525Z,10.17
2018-11-05T11:47:12.942Z,9.23
2018-11-05T11:49:41.671Z,11.40
2018-11-05T11:52:10.109Z,9.20
2018-11-05T11:54:38.861Z,9.10
2018-11-05T11:57:07.537Z,9.57
2018-11-05T11:59:35.992Z,9.93
2018-11-05T12:02:10.003Z,8.87
2018-11-05T12:04:38.449Z,9.67
2018-11-05T12:07:07.018Z,9.03
2018-11-05T12:09:35.469Z,9.23
2018-11-05T12:12:11.763Z,8.67
2018-11-05T12:14:40.291Z,9.77
2018-11-05T12:17:08.733Z,7.73
2018-11-05T12:19:37.153Z,9.87
2018-11-05T12:22:05.677Z,7.17
2018-11-05T12:24:34.142Z,7.40
2018-11-05T12:27:02.651Z,6.83
2018-11-05T12:29:31.094Z,9.27
2018-11-05T12:31:59.585Z,8.80
2018-11-05T12:34:28.079Z,8.63
2018-11-05T12:36:56.570Z,9.23
2018-11-05T12:39:25.006Z,9.40
2018-11-05T12:41:54.111Z,9.83
2018-11-05T12:44:22.563Z,10.50
2018-11-05T12:46:51.012Z,9.63
2018-11-05T12:49:19.449Z,8.40
2018-11-05T12:51:47.917Z,10.60
2018-11-05T12:54:16.388Z,9.90
2018-11-05T12:56:44.838Z,9.00
2018-11-05T12:59:13.285Z,9.43
2018-11-05T13:01:41.762Z,9.77
2018-11-05T13:04:10.278Z,9.80
2018-11-05T13:06:38.874Z,8.83
2018-11-05T13:09:08.914Z,8.13
2018-11-05T13:11:37.362Z,9.77
2018-11-05T13:14:05.901Z,9.37
2018-11-05T13:16:34.353Z,9.23
2018-11-05T13:19:02.818Z,9.53
2018-11-05T13:21:31.287Z,10.30
2018-11-05T13:23:59.745Z,10.23
2018-11-05T13:26:28.177Z,8.80
2018-11-05T13:28:56.649Z,8.03
2018-11-05T13:31:25.065Z,8.07
2018-11-05T13:33:53.527Z,9.30
2018-11-05T13:36:21.974Z,10.37
2018-11-05T13:38:50.455Z,9.67
2018-11-05T13:41:18.893Z,10.20
2018-11-05T13:43:47.383Z,9.30
2018-11-05T13:46:16.336Z,8.43
2018-11-05T13:48:44.729Z,11.33
2018-11-05T13:51:12.716Z,9.83
2018-11-05T13:53:41.186Z,11.37
2018-11-05T13:56:09.708Z,12.90
2018-11-05T13:58:38.199Z,11.90
2018-11-05T14:01:07.162Z,11.00
2018-11-05T14:03:35.635Z,10.60
2018-11-05T14:06:04.362Z,9.40
2018-11-05T14:08:32.942Z,11.47
2018-11-05T14:11:01.526Z,10.03
2018-11-05T14:13:29.965Z,13.47
2018-11-05T14:15:58.466Z,12.73
2018-11-05T14:18:27.048Z,13.17
2018-11-05T14:20:55.488Z,12.57
2018-11-05T14:23:23.897Z,13.53
2018-11-05T14:25:52.368Z,13.27
2018-11-05T14:28:21.107Z,17.47
2018-11-05T14:30:49.324Z,13.13
2018-11-05T14:33:17.782Z,13.67
2018-11-05T14:35:46.236Z,16.57
2018-11-05T14:38:14.696Z,14.73
2018-11-05T14:40:43.181Z,15.47
2018-11-05T14:43:11.800Z,14.60
2018-11-05T14:45:40.103Z,16.13
2018-11-05T14:48:08.556Z,17.17
2018-11-05T14:50:37.101Z,14.50
2018-11-05T14:53:05.513Z,16.53
2018-11-05T14:55:33.974Z,16.17
2018-11-05T14:58:02.401Z,16.87
2018-11-05T15:00:30.876Z,17.33
2018-11-05T15:02:59.404Z,17.23
2018-11-05T15:05:27.824Z,17.50
2018-11-05T15:07:56.323Z,17.37
2018-11-05T15:10:25.973Z,24.83
2018-11-05T15:12:54.435Z,16.63
2018-11-05T15:15:23.296Z,18.37
2018-11-05T15:17:51.831Z,18.73
2018-11-05T15:20:22.308Z,16.17
2018-11-05T15:22:50.661Z,16.70
2018-11-05T15:25:19.994Z,17.77
2018-11-05T15:27:48.468Z,17.70
2018-11-05T15:30:19.194Z,20.47
2018-11-05T15:32:47.735Z,16.90
2018-11-05T15:35:16.584Z,18.57
2018-11-05T15:37:45.325Z,16.53
2018-11-05T15:40:15.134Z,17.60
2018-11-05T15:42:43.653Z,19.77
2018-11-05T15:45:13.606Z,19.20
2018-11-05T15:47:43.879Z,20.70
2018-11-05T15:50:14.526Z,17.57
2018-11-05T15:52:43.698Z,21.37
2018-11-05T15:55:12.826Z,18.23
2018-11-05T15:57:41.746Z,20.80
2018-11-05T16:00:17.768Z,18.90
2018-11-05T16:02:48.402Z,22.37
2018-11-05T16:05:18.017Z,23.40
2018-11-05T16:07:46.688Z,24.83
2018-11-05T16:10:15.257Z,24.97
2018-11-05T16:12:43.773Z,21.80
2018-11-05T16:15:16.050Z,24.83
2018-11-05T16:17:44.544Z,22.97
2018-11-05T16:20:14.741Z,22.97
2018-11-05T16:22:43.623Z,24.63
2018-11-05T16:25:12.173Z,23.73
2018-11-05T16:27:40.818Z,26.17
2018-11-05T16:30:12.135Z,25.30
2018-11-05T16:32:41.066Z,26.57
2018-11-05T16:35:09.685Z,25.80
2018-11-05T16:37:38.102Z,30.27
2018-11-05T16:40:09.736Z,24.60
2018-11-05T16:42:38.553Z,26.47
2018-11-05T16:45:08.354Z,28.97
2018-11-05T16:47:37.530Z,33.10
2018-11-05T16:50:11.822Z,30.47
2018-11-05T16:52:40.311Z,25.03
2018-11-05T16:55:10.373Z,28.30
2018-11-05T16:57:38.965Z,21.90
2018-11-05T17:00:07.816Z,19.43
2018-11-05T17:02:36.467Z,19.23
2018-11-05T17:05:05.279Z,21.53
2018-11-05T17:07:33.776Z,24.93
2018-11-05T17:10:03.031Z,20.80
2018-11-05T17:12:31.575Z,21.40
2018-11-05T17:15:00.167Z,20.60
2018-11-05T17:17:29.077Z,23.33
2018-11-05T17:19:57.561Z,18.87
2018-11-05T17:22:26.193Z,19.20
2018-11-05T17:24:54.902Z,19.00
2018-11-05T17:27:23.426Z,18.47
2018-11-05T17:29:51.966Z,21.17
2018-11-05T17:32:20.699Z,18.17
2018-11-05T17:34:49.202Z,17.03
2018-11-05T17:37:18.517Z,17.87
2018-11-05T17:39:47.027Z,22.43
2018-11-05T17:42:15.919Z,17.00
2018-11-05T17:44:44.463Z,17.67
2018-11-05T17:47:13.286Z,18.07
2018-11-05T17:49:41.878Z,18.00
2018-11-05T17:52:10.433Z,20.53
2018-11-05T17:54:39.010Z,22.23
2018-11-05T17:57:07.673Z,25.13
2018-11-05T17:59:36.098Z,21.40
2018-11-05T18:02:04.884Z,20.17
2018-11-05T18:04:33.456Z,21.07
2018-11-05T18:07:22.123Z,22.90
2018-11-05T18:09:50.978Z,23.83
2018-11-05T18:12:19.491Z,19.23
2018-11-05T18:14:48.181Z,22.60
2018-11-05T18:17:16.658Z,20.20
2018-11-05T18:19:45.206Z,22.37
2018-11-05T18:22:13.773Z,20.80
2018-11-05T18:24:42.790Z,22.80
2018-11-05T18:27:11.268Z,26.53
2018-11-05T18:29:39.900Z,22.90
2018-11-05T18:32:08.804Z,24.00
2018-11-05T18:37:14.359Z,24.40
2018-11-05T18:39:42.799Z,26.97
2018-11-05T18:42:11.401Z,31.93
2018-11-05T18:44:40.416Z,27.03
2018-11-05T18:47:09.666Z,24.37
2018-11-05T18:49:38.537Z,25.43
2018-11-05T18:52:08.691Z,23.90
2018-11-05T18:54:37.915Z,25.23
2018-11-05T18:57:06.780Z,22.33
2018-11-05T18:59:35.259Z,26.03
2018-11-05T19:02:04.204Z,24.63
2018-11-05T19:04:32.726Z,21.70
2018-11-05T19:07:01.192Z,27.37
2018-11-05T19:09:29.830Z,24.97
2018-11-05T19:11:58.861Z,24.23
2018-11-05T19:14:27.362Z,20.30
2018-11-05T19:16:55.983Z,20.13
2018-11-05T19:19:24.561Z,20.70
2018-11-05T19:21:53.072Z,21.60
2018-11-05T19:24:21.721Z,22.73
2018-11-05T19:26:50.720Z,22.37
2018-11-05T19:29:19.192Z,20.13
2018-11-05T19:31:47.645Z,22.77
2018-11-05T19:34:16.153Z,22.40
2018-11-05T19:36:45.279Z,22.93
2018-11-05T19:39:14.346Z,21.90
2018-11-05T19:41:42.920Z,22.23
2018-11-05T19:44:12.018Z,23.13
2018-11-05T19:46:40.522Z,26.67
2018-11-05T19:49:09.208Z,24.20
2018-11-05T19:51:37.756Z,27.10
2018-11-05T19:54:06.307Z,25.67
2018-11-05T19:56:34.896Z,26.23
2018-11-05T19:59:03.408Z,25.37
2018-11-05T20:01:31.962Z,24.27
2018-11-05T20:04:00.458Z,23.03
2018-11-05T20:06:29.797Z,26.77
2018-11-05T20:08:58.455Z,25.20
2018-11-05T20:11:27.004Z,23.80
2018-11-05T20:13:55.622Z,22.43
2018-11-05T20:16:24.171Z,24.63
2018-11-05T20:18:52.708Z,25.77
2018-11-05T20:21:21.166Z,22.60
2018-11-05T20:23:49.654Z,24.17
2018-11-05T20:26:18.634Z,25.27
2018-11-05T20:28:47.124Z,23.47
2018-11-05T20:31:15.664Z,28.10
2018-11-05T20:33:44.303Z,25.03
2018-11-05T20:36:12.592Z,27.00
2018-11-05T20:38:41.018Z,24.53
2018-11-05T20:41:09.594Z,21.80
2018-11-05T20:43:38.038Z,22.40
2018-11-05T20:46:06.547Z,20.40
2018-11-05T20:48:34.990Z,20.80
2018-11-05T20:51:03.455Z,25.03
2018-11-05T20:53:32.021Z,24.30
2018-11-05T20:56:00.435Z,25.73
2018-11-05T20:58:28.889Z,23.00
2018-11-05T21:00:57.396Z,26.03
2018-11-05T21:03:25.830Z,23.53
2018-11-05T21:05:54.274Z,21.30
2018-11-05T21:08:22.754Z,23.70
2018-11-05T21:10:51.203Z,22.37
2018-11-05T21:13:19.661Z,22.30
2018-11-05T21:15:48.268Z,26.43
2018-11-05T21:18:16.766Z,21.47
2018-11-05T21:20:45.209Z,22.07
2018-11-05T21:23:13.735Z,22.10
2018-11-05T21:25:42.167Z,22.50
2018-11-05T21:28:10.618Z,23.13
2018-11-05T21:30:39.097Z,21.80
2018-11-05T21:33:10.395Z,22.37
2018-11-05T21:35:38.840Z,19.10
2018-11-05T21:38:07.404Z,21.40
2018-11-05T21:40:35.888Z,22.30
2018-11-05T21:43:04.467Z,22.33
2018-11-05T21:45:32.962Z,22.67
2018-11-05T21:48:01.399Z,25.00
2018-11-05T21:50:30.315Z,23.47
2018-11-05T21:52:58.837Z,25.57
2018-11-05T21:55:27.310Z,22.03
2018-11-05T21:57:55.755Z,22.33
2018-11-05T22:00:25.361Z,20.30
2018-11-05T22:03:02.205Z,21.03
2018-11-05T22:05:30.683Z,23.00
2018-11-05T22:07:59.151Z,22.50
2018-11-05T22:10:27.605Z,27.00
2018-11-05T22:12:56.058Z,26.73
2018-11-05T22:15:24.500Z,20.63
2018-11-05T22:17:52.961Z,24.63
2018-11-05T22:20:21.393Z,25.37
2018-11-05T22:22:49.851Z,24.73
2018-11-05T22:25:18.336Z,23.93
2018-11-05T22:27:46.789Z,22.33
2018-11-05T22:30:18.104Z,23.00
2018-11-05T22:32:46.581Z,21.40
2018-11-05T22:35:15.005Z,26.60
2018-11-05T22:37:43.447Z,23.87
2018-11-05T22:40:13.309Z,21.33
2018-11-05T22:42:42.103Z,23.63
2018-11-05T22:45:12.110Z,21.90
2018-11-05T22:47:40.913Z,24.33
2018-11-05T22:50:09.668Z,24.53
2018-11-05T22:52:38.681Z,24.57
2018-11-05T22:55:07.774Z,22.23
2018-11-05T22:57:36.287Z,25.20
2018-11-05T23:00:08.220Z,21.80
2018-11-05T23:02:38.785Z,23.60
2018-11-05T23:05:07.257Z,18.77
2018-11-05T23:07:35.750Z,20.27
2018-11-05T23:10:04.308Z,17.03
2018-11-05T23:12:32.923Z,13.57
2018-11-05T23:15:01.479Z,14.07
2018-11-05T23:17:30.590Z,17.60
2018-11-05T23:19:59.353Z,11.80
2018-11-05T23:22:27.782Z,13.90
2018-11-05T23:24:56.238Z,12.60
2018-11-05T23:27:24.665Z,11.60
2018-11-05T23:29:53.409Z,8.87
2018-11-05T23:32:21.847Z,7.67
2018-11-05T23:34:50.282Z,7.53
2018-11-05T23:37:18.733Z,7.77
2018-11-05T23:39:47.161Z,8.00
2018-11-05T23:42:15.610Z,8.27
2018-11-05T23:44:44.655Z,8.30
2018-11-05T23:47:13.088Z,7.00
2018-11-05T23:49:41.544Z,10.83
2018-11-05T23:52:10.037Z,8.27
2018-11-05T23:54:38.493Z,7.93
2018-11-05T23:57:07.006Z,9.47
2018-11-05T23:59:35.466Z,6.90
